createdAt,value
2019-06-27T00:02:25.930Z,54.48
2019-06-27T00:04:52.849Z,54.39
2019-06-27T00:07:19.702Z,54.70
2019-06-27T00:09:46.409Z,54.91
2019-06-27T00:12:13.125Z,55.00
2019-06-27T00:14:39.843Z,55.21
2019-06-27T00:17:06.894Z,55.14
2019-06-27T00:19:33.572Z,55.37
2019-06-27T00:22:00.285Z,55.34
2019-06-27T00:24:26.972Z,55.20
2019-06-27T00:26:57.370Z,55.35
2019-06-27T00:29:22.390Z,55.96
2019-06-27T00:31:49.109Z,56.35
2019-06-27T00:34:15.833Z,56.28
2019-06-27T00:36:42.546Z,57.22
2019-06-27T00:39:09.238Z,57.68
2019-06-27T00:41:35.929Z,57.41
2019-06-27T00:44:02.705Z,57.01
2019-06-27T00:46:29.385Z,57.18
2019-06-27T00:48:56.414Z,56.74
2019-06-27T00:51:23.179Z,56.42
2019-06-27T00:53:49.894Z,56.82
2019-06-27T00:56:16.605Z,56.83
2019-06-27T00:58:43.300Z,56.86
2019-06-27T01:01:10.977Z,56.94
2019-06-27T01:03:37.674Z,57.44
2019-06-27T01:06:04.797Z,58.03
2019-06-27T01:08:31.528Z,58.43
2019-06-27T01:10:58.240Z,58.30
2019-06-27T01:13:24.929Z,58.39
2019-06-27T01:15:51.642Z,58.62
2019-06-27T01:18:18.370Z,58.18
2019-06-27T01:20:45.095Z,58.25
2019-06-27T01:23:11.899Z,58.66
2019-06-27T01:25:38.623Z,58.58
2019-06-27T01:28:05.353Z,58.94
2019-06-27T01:30:32.017Z,59.01
2019-06-27T01:32:58.746Z,58.91
2019-06-27T01:35:25.495Z,59.27
2019-06-27T01:37:52.176Z,59.30
2019-06-27T01:40:18.991Z,59.69
2019-06-27T01:42:45.730Z,59.57
2019-06-27T01:45:18.568Z,59.43
2019-06-27T01:47:45.385Z,59.33
2019-06-27T01:50:14.469Z,59.70
2019-06-27T01:52:41.259Z,59.79
2019-06-27T01:55:08.182Z,59.82
2019-06-27T01:57:46.084Z,59.91
2019-06-27T02:00:04.073Z,60.13
2019-06-27T02:02:30.799Z,60.69
2019-06-27T02:04:57.486Z,61.02
2019-06-27T02:07:24.222Z,61.07
2019-06-27T02:09:51.016Z,61.02
2019-06-27T02:12:17.711Z,60.84
2019-06-27T02:14:44.463Z,61.08
2019-06-27T02:17:11.642Z,61.21
2019-06-27T02:19:38.633Z,60.92
2019-06-27T02:22:05.372Z,60.87
2019-06-27T02:24:32.079Z,61.13
2019-06-27T02:26:58.823Z,61.05
2019-06-27T02:29:25.580Z,61.10
2019-06-27T02:31:52.293Z,61.06
2019-06-27T02:34:19.022Z,61.61
2019-06-27T02:36:45.720Z,62.10
2019-06-27T02:39:12.439Z,62.22
2019-06-27T02:41:39.198Z,62.10
2019-06-27T02:44:05.876Z,62.29
2019-06-27T02:46:32.598Z,62.54
2019-06-27T02:48:59.298Z,62.74
2019-06-27T02:51:25.999Z,62.99
2019-06-27T02:53:52.737Z,62.86
2019-06-27T02:56:19.861Z,63.73
2019-06-27T02:58:46.588Z,64.87
2019-06-27T03:01:13.277Z,64.96
2019-06-27T03:03:39.966Z,64.24
2019-06-27T03:06:06.672Z,64.48
2019-06-27T03:08:33.368Z,64.36
2019-06-27T03:11:02.150Z,63.94
2019-06-27T03:13:28.872Z,63.71
2019-06-27T03:15:55.642Z,63.42
2019-06-27T03:18:23.071Z,63.33
2019-06-27T03:20:49.741Z,63.43
2019-06-27T03:23:16.492Z,63.92
2019-06-27T03:25:43.207Z,63.63
2019-06-27T03:28:09.927Z,63.75
2019-06-27T03:30:36.646Z,63.38
2019-06-27T03:33:03.381Z,63.41
2019-06-27T03:35:30.108Z,63.48
2019-06-27T03:37:57.109Z,63.46
2019-06-27T03:40:23.842Z,63.85
2019-06-27T03:42:50.567Z,64.75
2019-06-27T03:45:17.273Z,65.46
2019-06-27T03:47:44.202Z,65.54
2019-06-27T03:50:11.035Z,64.73
2019-06-27T03:52:37.758Z,64.29
2019-06-27T03:55:04.543Z,64.13
2019-06-27T03:57:31.591Z,64.23
2019-06-27T04:02:38.450Z,64.19
2019-06-27T04:05:05.591Z,65.07
2019-06-27T04:07:32.300Z,65.14
2019-06-27T04:09:59.020Z,65.13
2019-06-27T04:12:26.453Z,65.03
2019-06-27T04:14:53.180Z,65.30
2019-06-27T04:17:19.897Z,65.33
2019-06-27T04:19:46.626Z,65.08
2019-06-27T04:22:17.306Z,64.81
2019-06-27T04:24:41.984Z,64.74
2019-06-27T04:27:08.702Z,64.26
2019-06-27T04:29:35.446Z,64.08
2019-06-27T04:32:02.140Z,64.41
2019-06-27T04:34:28.846Z,64.38
2019-06-27T04:36:55.550Z,64.39
2019-06-27T04:39:22.259Z,64.49
2019-06-27T04:41:48.989Z,64.44
2019-06-27T04:44:15.723Z,64.25
2019-06-27T04:46:42.529Z,64.19
2019-06-27T04:49:13.555Z,63.66
2019-06-27T04:51:38.312Z,63.49
2019-06-27T04:54:05.043Z,63.66
2019-06-27T04:56:32.126Z,63.97
2019-06-27T04:58:58.831Z,63.73
2019-06-27T05:01:25.532Z,64.08
2019-06-27T05:03:53.539Z,64.01
2019-06-27T05:06:20.232Z,63.66
2019-06-27T05:08:46.964Z,64.20
2019-06-27T05:11:13.925Z,62.62
2019-06-27T05:13:40.666Z,61.45
2019-06-27T05:16:07.648Z,60.14
2019-06-27T05:18:34.370Z,59.77
2019-06-27T05:21:01.130Z,59.29
2019-06-27T05:23:27.943Z,58.82
2019-06-27T05:25:54.733Z,58.49
2019-06-27T05:28:21.454Z,59.57
2019-06-27T05:30:51.372Z,59.91
2019-06-27T05:33:16.804Z,60.48
2019-06-27T05:35:43.525Z,60.62
2019-06-27T05:38:10.409Z,60.54
2019-06-27T05:40:37.566Z,61.85
2019-06-27T05:43:04.449Z,61.71
2019-06-27T05:45:31.176Z,61.08
2019-06-27T05:47:57.898Z,61.22
2019-06-27T05:50:27.126Z,61.54
2019-06-27T05:52:53.844Z,61.04
2019-06-27T05:55:20.664Z,61.22
2019-06-27T05:57:47.392Z,60.86
2019-06-27T06:00:27.491Z,59.95
2019-06-27T06:02:43.262Z,59.69
2019-06-27T06:05:10.072Z,59.05
2019-06-27T06:07:36.796Z,59.27
2019-06-27T06:10:08.272Z,58.92
2019-06-27T06:12:38.282Z,58.50
2019-06-27T06:15:06.051Z,57.99
2019-06-27T06:17:32.771Z,57.81
2019-06-27T06:19:59.470Z,57.68
2019-06-27T06:22:26.537Z,57.58
2019-06-27T06:24:53.224Z,57.22
2019-06-27T06:27:20.075Z,57.03
2019-06-27T06:29:47.484Z,57.04
2019-06-27T06:32:14.182Z,56.79
2019-06-27T06:34:40.902Z,56.24
2019-06-27T06:37:08.230Z,55.62
2019-06-27T06:39:35.102Z,55.33
2019-06-27T06:42:01.849Z,55.41
2019-06-27T06:44:28.639Z,55.47
2019-06-27T06:46:55.499Z,55.77
2019-06-27T06:49:22.252Z,55.62
2019-06-27T06:51:49.010Z,55.18
2019-06-27T06:54:18.342Z,55.35
2019-06-27T06:56:45.255Z,55.44
2019-06-27T06:59:14.847Z,55.24
2019-06-27T07:01:45.481Z,56.00
2019-06-27T07:04:10.723Z,56.25
2019-06-27T07:06:37.555Z,56.08
2019-06-27T07:09:05.642Z,55.85
2019-06-27T07:11:33.421Z,56.19
2019-06-27T07:14:00.325Z,56.21
2019-06-27T07:16:27.711Z,55.64
2019-06-27T07:19:00.541Z,54.92
2019-06-27T07:21:27.689Z,53.86
2019-06-27T07:23:56.920Z,52.88
2019-06-27T07:26:25.414Z,52.45
2019-06-27T07:28:52.121Z,52.12
2019-06-27T07:31:19.128Z,51.56
2019-06-27T07:33:45.950Z,51.19
2019-06-27T07:36:12.871Z,51.09
2019-06-27T07:38:41.269Z,50.34
2019-06-27T07:41:08.646Z,49.00
2019-06-27T07:43:35.502Z,49.15
2019-06-27T07:46:02.232Z,47.94
2019-06-27T07:48:28.923Z,48.19
2019-06-27T07:50:55.621Z,48.14
2019-06-27T07:53:22.337Z,48.39
2019-06-27T07:55:50.757Z,47.69
2019-06-27T07:58:17.476Z,46.73
2019-06-27T08:00:44.387Z,46.60
2019-06-27T08:03:11.534Z,47.23
2019-06-27T08:05:41.083Z,46.60
2019-06-27T08:08:16.230Z,46.98
2019-06-27T08:10:44.465Z,47.04
2019-06-27T08:13:14.645Z,47.09
2019-06-27T08:15:46.077Z,46.62
2019-06-27T08:18:12.819Z,47.05
2019-06-27T08:20:39.880Z,47.57
2019-06-27T08:23:06.643Z,47.83
2019-06-27T08:25:33.358Z,47.97
2019-06-27T08:28:00.091Z,48.14
2019-06-27T08:30:26.811Z,47.38
2019-06-27T08:32:54.457Z,46.15
2019-06-27T08:35:21.631Z,46.14
2019-06-27T08:37:48.371Z,45.54
2019-06-27T08:40:15.087Z,45.54
2019-06-27T08:42:42.169Z,45.59
2019-06-27T08:45:08.902Z,44.22
2019-06-27T08:47:35.909Z,44.79
2019-06-27T08:50:04.867Z,44.68
2019-06-27T08:52:31.611Z,44.19
2019-06-27T08:54:58.320Z,44.49
2019-06-27T08:57:25.788Z,44.94
2019-06-27T08:59:54.008Z,44.79
2019-06-27T09:02:21.116Z,43.59
2019-06-27T09:04:48.314Z,42.46
2019-06-27T09:07:15.050Z,42.54
2019-06-27T09:09:43.783Z,42.54
2019-06-27T09:12:10.571Z,41.80
2019-06-27T09:14:39.581Z,39.93
2019-06-27T09:17:06.314Z,40.04
2019-06-27T09:19:33.089Z,40.16
2019-06-27T09:22:00.209Z,39.17
2019-06-27T09:24:27.050Z,40.27
2019-06-27T09:26:53.776Z,40.61
2019-06-27T09:29:20.864Z,40.38
2019-06-27T09:31:47.595Z,39.89
2019-06-27T09:34:14.349Z,39.54
2019-06-27T09:36:41.062Z,39.31
2019-06-27T09:39:08.267Z,39.45
2019-06-27T09:41:34.949Z,38.95
2019-06-27T09:44:03.465Z,39.29
2019-06-27T09:46:30.418Z,40.29
2019-06-27T09:48:57.144Z,40.73
2019-06-27T09:51:24.099Z,40.62
2019-06-27T09:53:51.119Z,40.43
2019-06-27T09:56:18.252Z,39.75
2019-06-27T09:58:45.035Z,39.80
2019-06-27T10:01:11.785Z,38.99
2019-06-27T10:03:38.523Z,38.66
2019-06-27T10:06:05.381Z,38.30
2019-06-27T10:08:32.667Z,38.08
2019-06-27T10:10:59.903Z,38.15
2019-06-27T10:13:27.060Z,38.59
2019-06-27T10:15:54.057Z,39.77
2019-06-27T10:18:22.541Z,39.48
2019-06-27T10:20:49.955Z,38.53
2019-06-27T10:23:18.717Z,38.63
2019-06-27T10:25:45.669Z,38.10
2019-06-27T10:28:12.382Z,37.23
2019-06-27T10:30:39.159Z,37.29
2019-06-27T10:33:05.920Z,37.71
2019-06-27T10:35:33.437Z,37.40
2019-06-27T10:38:00.127Z,37.08
2019-06-27T10:40:28.307Z,37.41
2019-06-27T10:42:56.134Z,37.62
2019-06-27T10:45:22.957Z,38.13
2019-06-27T10:47:49.747Z,38.03
2019-06-27T10:50:16.799Z,37.23
2019-06-27T10:52:43.522Z,36.84
2019-06-27T10:55:10.255Z,36.17
2019-06-27T10:57:37.377Z,36.32
2019-06-27T11:00:04.945Z,36.01
2019-06-27T11:02:32.612Z,35.74
2019-06-27T11:04:59.512Z,35.74
2019-06-27T11:07:27.055Z,36.01
2019-06-27T11:09:53.757Z,35.76
2019-06-27T11:12:20.544Z,35.19
2019-06-27T11:14:58.570Z,35.22
2019-06-27T11:17:20.404Z,35.23
2019-06-27T11:19:52.270Z,34.93
2019-06-27T11:22:16.572Z,34.40
2019-06-27T11:24:43.601Z,34.26
2019-06-27T11:27:10.535Z,34.56
2019-06-27T11:29:37.708Z,34.29
2019-06-27T11:32:07.662Z,33.80
2019-06-27T11:34:35.435Z,33.47
2019-06-27T11:37:02.959Z,33.67
2019-06-27T11:39:31.013Z,34.18
2019-06-27T11:41:57.962Z,34.47
2019-06-27T11:44:25.176Z,35.15
2019-06-27T11:46:54.559Z,35.13
2019-06-27T11:49:21.550Z,34.96
2019-06-27T11:51:48.611Z,34.83
2019-06-27T11:54:15.327Z,34.36
2019-06-27T11:56:42.325Z,34.23
2019-06-27T11:59:10.691Z,32.84
2019-06-27T12:01:37.783Z,33.03
2019-06-27T12:04:09.345Z,33.00
2019-06-27T12:06:36.339Z,32.75
2019-06-27T12:09:04.144Z,32.61
2019-06-27T12:11:30.883Z,32.27
2019-06-27T12:13:57.585Z,32.18
2019-06-27T12:16:24.318Z,31.77
2019-06-27T12:18:51.149Z,31.29
2019-06-27T12:21:17.864Z,31.20
2019-06-27T12:23:44.837Z,30.63
2019-06-27T12:26:13.865Z,30.08
2019-06-27T12:28:40.630Z,29.92
2019-06-27T12:31:20.142Z,30.43
2019-06-27T12:33:36.531Z,30.41
2019-06-27T12:36:03.679Z,30.60
2019-06-27T12:38:32.298Z,31.21
2019-06-27T12:41:02.275Z,31.17
2019-06-27T12:43:31.627Z,30.14
2019-06-27T12:45:58.353Z,29.62
2019-06-27T12:48:25.036Z,29.24
2019-06-27T12:50:54.162Z,29.44
2019-06-27T12:53:21.178Z,29.01
2019-06-27T12:55:48.232Z,28.93
2019-06-27T12:58:14.941Z,29.19
2019-06-27T13:00:42.488Z,28.59
2019-06-27T13:03:09.953Z,28.65
2019-06-27T13:05:44.663Z,29.01
2019-06-27T13:08:11.605Z,28.58
2019-06-27T13:10:38.725Z,27.92
2019-06-27T13:13:05.543Z,27.10
2019-06-27T13:15:32.439Z,26.42
2019-06-27T13:17:59.245Z,26.31
2019-06-27T13:20:26.011Z,26.29
2019-06-27T13:22:53.701Z,26.11
2019-06-27T13:25:20.421Z,25.75
2019-06-27T13:27:48.811Z,27.24
2019-06-27T13:30:15.850Z,26.75
2019-06-27T13:32:42.541Z,25.98
2019-06-27T13:35:09.295Z,25.61
2019-06-27T13:37:36.037Z,25.60
2019-06-27T13:40:04.739Z,25.26
2019-06-27T13:42:31.863Z,25.34
2019-06-27T13:45:10.939Z,25.68
2019-06-27T13:47:38.178Z,25.33
2019-06-27T13:50:07.584Z,25.35
2019-06-27T13:52:34.334Z,25.68
2019-06-27T13:55:01.065Z,25.52
2019-06-27T13:57:29.017Z,25.47
2019-06-27T13:59:57.640Z,25.32
2019-06-27T14:02:24.430Z,24.90
2019-06-27T14:04:57.050Z,25.33
2019-06-27T14:07:20.212Z,25.15
2019-06-27T14:09:55.423Z,24.55
2019-06-27T14:12:17.724Z,23.93
2019-06-27T14:14:58.724Z,23.73
2019-06-27T14:17:13.330Z,23.97
2019-06-27T14:19:46.015Z,24.33
2019-06-27T14:22:14.982Z,24.14
2019-06-27T14:24:42.973Z,23.72
2019-06-27T14:27:09.663Z,24.40
2019-06-27T14:29:36.633Z,24.52
2019-06-27T14:32:03.801Z,24.50
2019-06-27T14:34:30.958Z,23.46
2019-06-27T14:36:59.938Z,23.12
2019-06-27T14:39:27.909Z,22.78
2019-06-27T14:41:54.764Z,23.37
2019-06-27T14:44:21.496Z,22.89
2019-06-27T14:46:48.982Z,23.25
2019-06-27T14:49:25.165Z,23.73
2019-06-27T14:51:51.909Z,24.22
2019-06-27T14:54:18.621Z,23.57
2019-06-27T14:56:45.468Z,23.29
2019-06-27T14:59:14.433Z,22.51
2019-06-27T15:01:40.781Z,23.04
2019-06-27T15:04:07.496Z,23.64
2019-06-27T15:06:34.213Z,23.44
2019-06-27T15:09:02.570Z,23.94
2019-06-27T15:11:33.691Z,24.38
2019-06-27T15:14:00.573Z,24.39
2019-06-27T15:16:27.492Z,23.69
2019-06-27T15:18:54.519Z,23.53
2019-06-27T15:21:21.321Z,22.97
2019-06-27T15:23:47.991Z,22.86
2019-06-27T15:26:14.713Z,22.22
2019-06-27T15:28:41.463Z,20.86
2019-06-27T15:31:08.224Z,20.73
2019-06-27T15:33:35.193Z,20.91
2019-06-27T15:36:02.249Z,21.18
2019-06-27T15:38:31.347Z,21.57
2019-06-27T15:40:58.033Z,22.17
2019-06-27T15:43:24.756Z,22.49
2019-06-27T15:45:51.643Z,26.21
2019-06-27T15:48:18.375Z,22.51
2019-06-27T15:50:45.635Z,22.40
2019-06-27T15:53:14.319Z,21.69
2019-06-27T15:55:50.597Z,21.57
2019-06-27T15:58:17.329Z,21.90
2019-06-27T16:00:44.029Z,20.95
2019-06-27T16:03:10.741Z,21.46
2019-06-27T16:05:37.774Z,22.58
2019-06-27T16:08:04.555Z,22.19
2019-06-27T16:10:34.260Z,22.42
2019-06-27T16:13:02.840Z,22.27
2019-06-27T16:15:30.331Z,22.66
2019-06-27T16:17:59.323Z,22.98
2019-06-27T16:20:26.038Z,23.41
2019-06-27T16:22:52.792Z,23.29
2019-06-27T16:25:19.825Z,23.99
2019-06-27T16:27:46.555Z,22.62
2019-06-27T16:30:13.304Z,21.46
2019-06-27T16:32:40.766Z,22.79
2019-06-27T16:35:07.478Z,22.90
2019-06-27T16:37:34.209Z,22.56
2019-06-27T16:40:02.581Z,23.33
2019-06-27T16:42:29.497Z,21.90
2019-06-27T16:44:57.548Z,22.66
2019-06-27T16:47:24.412Z,22.54
2019-06-27T16:49:51.213Z,22.07
2019-06-27T16:52:18.054Z,22.01
2019-06-27T16:54:44.753Z,21.84
2019-06-27T16:57:11.525Z,21.85
2019-06-27T16:59:38.279Z,21.95
2019-06-27T17:02:07.116Z,21.92
2019-06-27T17:04:33.666Z,21.61
2019-06-27T17:07:00.526Z,21.66
2019-06-27T17:09:28.131Z,22.29
2019-06-27T17:11:54.820Z,22.49
2019-06-27T17:14:21.524Z,23.15
2019-06-27T17:16:48.306Z,23.60
2019-06-27T17:19:16.654Z,23.90
2019-06-27T17:21:43.375Z,24.10
2019-06-27T17:24:10.093Z,23.86
2019-06-27T17:26:38.970Z,23.88
2019-06-27T17:29:08.272Z,24.46
2019-06-27T17:31:35.008Z,24.46
2019-06-27T17:34:01.738Z,24.21
2019-06-27T17:36:28.461Z,24.49
2019-06-27T17:38:55.299Z,24.62
2019-06-27T17:41:22.114Z,24.94
2019-06-27T17:43:48.857Z,25.21
2019-06-27T17:46:15.592Z,25.45
2019-06-27T17:48:42.560Z,25.30
2019-06-27T17:51:09.282Z,25.14
2019-06-27T17:53:36.398Z,25.35
2019-06-27T17:56:03.156Z,25.34
2019-06-27T17:58:29.828Z,25.14
2019-06-27T18:00:56.600Z,25.03
2019-06-27T18:03:23.301Z,24.90
2019-06-27T18:05:50.355Z,25.14
2019-06-27T18:08:17.420Z,25.07
2019-06-27T18:10:44.143Z,24.70
2019-06-27T18:13:10.879Z,25.04
2019-06-27T18:15:37.610Z,25.08
2019-06-27T18:18:04.350Z,24.85
2019-06-27T18:20:31.144Z,24.86
2019-06-27T18:22:57.856Z,25.02
2019-06-27T18:25:24.632Z,25.45
2019-06-27T18:27:51.753Z,26.11
2019-06-27T18:30:18.466Z,26.29
2019-06-27T18:32:45.284Z,26.57
2019-06-27T18:35:12.058Z,26.71
2019-06-27T18:37:38.783Z,26.66
2019-06-27T18:40:05.868Z,26.71
2019-06-27T18:42:32.668Z,27.16
2019-06-27T18:44:59.775Z,26.76
2019-06-27T18:47:27.595Z,26.79
2019-06-27T18:49:54.429Z,27.34
2019-06-27T18:52:21.151Z,27.29
2019-06-27T18:54:49.287Z,27.84
2019-06-27T18:57:16.203Z,27.69
2019-06-27T18:59:42.936Z,27.98
2019-06-27T19:02:10.003Z,28.11
2019-06-27T19:04:36.743Z,28.23
2019-06-27T19:07:03.649Z,27.93
2019-06-27T19:09:30.728Z,28.49
2019-06-27T19:11:57.462Z,28.35
2019-06-27T19:14:24.208Z,28.52
2019-06-27T19:16:51.443Z,28.27
2019-06-27T19:19:21.392Z,28.78
2019-06-27T19:21:57.347Z,28.78
2019-06-27T19:24:32.131Z,28.25
2019-06-27T19:26:58.959Z,27.73
2019-06-27T19:29:27.032Z,27.76
2019-06-27T19:31:53.982Z,27.81
2019-06-27T19:34:20.690Z,29.44
2019-06-27T19:36:48.024Z,27.83
2019-06-27T19:39:17.306Z,28.07
2019-06-27T19:41:44.079Z,28.14
2019-06-27T19:44:10.804Z,27.70
2019-06-27T19:46:37.516Z,27.69
2019-06-27T19:49:04.233Z,28.06
2019-06-27T19:51:30.957Z,28.00
2019-06-27T19:53:58.177Z,28.00
2019-06-27T19:56:25.128Z,27.95
2019-06-27T19:58:58.348Z,28.25
2019-06-27T20:01:32.757Z,28.62
2019-06-27T20:04:01.493Z,27.34
2019-06-27T20:06:28.320Z,27.29
2019-06-27T20:08:55.047Z,28.12
2019-06-27T20:11:21.778Z,27.77
2019-06-27T20:13:51.357Z,28.11
2019-06-27T20:16:20.897Z,28.14
2019-06-27T20:18:51.174Z,28.46
2019-06-27T20:21:17.928Z,28.87
2019-06-27T20:23:44.693Z,28.08
2019-06-27T20:26:11.420Z,29.28
2019-06-27T20:28:38.230Z,28.68
2019-06-27T20:31:05.269Z,27.94
2019-06-27T20:33:31.950Z,27.86
2019-06-27T20:35:58.701Z,28.56
2019-06-27T20:38:34.981Z,29.79
2019-06-27T20:40:54.160Z,28.39
2019-06-27T20:43:20.930Z,27.49
2019-06-27T20:45:52.070Z,27.29
2019-06-27T20:48:18.805Z,28.55
2019-06-27T20:50:45.608Z,26.41
2019-06-27T20:53:16.374Z,27.03
2019-06-27T20:55:46.378Z,27.06
2019-06-27T20:58:13.111Z,29.55
2019-06-27T21:00:45.296Z,25.96
2019-06-27T21:03:12.028Z,28.58
2019-06-27T21:05:38.861Z,28.24
2019-06-27T21:08:05.621Z,30.13
2019-06-27T21:10:32.740Z,26.63
2019-06-27T21:12:59.592Z,28.90
2019-06-27T21:15:26.304Z,28.31
2019-06-27T21:17:53.082Z,28.32
2019-06-27T21:20:20.289Z,26.68
2019-06-27T21:22:47.476Z,26.67
2019-06-27T21:25:14.178Z,26.90
2019-06-27T21:27:40.856Z,27.02
2019-06-27T21:30:07.910Z,27.31
2019-06-27T21:32:35.179Z,27.65
2019-06-27T21:35:02.191Z,27.69
2019-06-27T21:37:28.939Z,27.71
2019-06-27T21:39:55.644Z,27.61
2019-06-27T21:42:22.340Z,27.61
2019-06-27T21:44:49.457Z,28.00
2019-06-27T21:47:16.126Z,28.01
2019-06-27T21:49:42.842Z,28.18
2019-06-27T21:52:09.680Z,28.71
2019-06-27T21:54:36.419Z,28.87
2019-06-27T21:57:03.227Z,28.86
2019-06-27T21:59:29.976Z,28.97
2019-06-27T22:01:56.879Z,29.17
2019-06-27T22:04:23.620Z,29.77
2019-06-27T22:06:50.348Z,30.25
2019-06-27T22:09:24.680Z,31.51
2019-06-27T22:11:45.674Z,32.29
2019-06-27T22:14:12.742Z,32.60
2019-06-27T22:16:39.777Z,32.69
2019-06-27T22:19:06.611Z,33.46
2019-06-27T22:21:33.376Z,34.60
2019-06-27T22:24:00.438Z,34.76
2019-06-27T22:26:27.182Z,35.74
2019-06-27T22:28:53.883Z,36.98
2019-06-27T22:31:20.592Z,37.17
2019-06-27T22:33:47.343Z,37.11
2019-06-27T22:36:14.115Z,37.08
2019-06-27T22:38:59.122Z,37.30
2019-06-27T22:41:44.318Z,38.03
2019-06-27T22:44:29.562Z,38.49
2019-06-27T22:47:14.655Z,38.53
2019-06-27T22:49:41.705Z,38.35
2019-06-27T22:52:22.707Z,38.34
2019-06-27T22:54:51.220Z,38.40
2019-06-27T22:57:17.932Z,38.47
2019-06-27T22:59:44.645Z,38.54
2019-06-27T23:02:11.391Z,38.63
2019-06-27T23:04:38.436Z,38.77
2019-06-27T23:07:05.252Z,38.97
2019-06-27T23:09:31.988Z,39.03
2019-06-27T23:11:58.702Z,39.03
2019-06-27T23:14:25.407Z,38.83
2019-06-27T23:16:52.130Z,38.54
2019-06-27T23:19:18.885Z,38.33
2019-06-27T23:21:45.593Z,38.48
2019-06-27T23:24:12.594Z,38.63
2019-06-27T23:26:39.312Z,38.94
2019-06-27T23:29:06.039Z,39.30
2019-06-27T23:31:32.741Z,40.27
2019-06-27T23:33:59.443Z,39.99
2019-06-27T23:36:26.261Z,40.07
2019-06-27T23:38:53.015Z,40.29
2019-06-27T23:41:19.738Z,40.42
2019-06-27T23:43:46.464Z,40.69
2019-06-27T23:46:31.685Z,40.97
2019-06-27T23:48:58.443Z,41.75
2019-06-27T23:51:25.139Z,42.32
2019-06-27T23:53:51.883Z,42.32
2019-06-27T23:56:19.033Z,42.04
2019-06-27T23:58:45.739Z,42.59
